Ilwaco, Washington
Current Conditions -  °F | °C
As of 1:55 AM on Friday 19 Dec 2014 (Local Time) from KAST Reporting Station
Clear Clear  
Wind Chill: 42°   Ceiling: Unl
Heat Index: 46°   Visibility: 10mi
Dew Point: 43°   Wind: 7mph
Humidity: 89%   Direction: 130°SE
Pressure: 29.81"   Gusts: NA
Location:  46.31°N, 124.04°W
Report Text: KAST 190955Z AUTO 13006KT 10SM CLR 08/06 A2981 RMK AO2 SLP094 T00780061
Loading
Personal Weather Stations






























Interactive Weather Map New forecast layout! Learn more

10-Day Weather Forecast

Advertisements
Track Severe Weather on mobile